sensor_id;sensor_type;location;lat;lon;timestamp;P1;durP1;ratioP1;P2;durP2;ratioP2
9320;SDS011;4699;41.950;12.514;2022-08-19T00:01:46;13.32;;;3.78;;
9320;SDS011;4699;41.950;12.514;2022-08-19T00:04:15;15.27;;;4.18;;
9320;SDS011;4699;41.950;12.514;2022-08-19T00:06:43;17.02;;;3.67;;
9320;SDS011;4699;41.950;12.514;2022-08-19T00:09:12;14.88;;;3.50;;
9320;SDS011;4699;41.950;12.514;2022-08-19T00:11:40;10.80;;;3.35;;
9320;SDS011;4699;41.950;12.514;2022-08-19T00:14:09;15.70;;;4.05;;
9320;SDS011;4699;41.950;12.514;2022-08-19T00:16:38;11.70;;;3.88;;
9320;SDS011;4699;41.950;12.514;2022-08-19T00:19:06;13.25;;;4.30;;
9320;SDS011;4699;41.950;12.514;2022-08-19T00:21:33;16.77;;;4.07;;
9320;SDS011;4699;41.950;12.514;2022-08-19T00:24:03;13.93;;;3.33;;
9320;SDS011;4699;41.950;12.514;2022-08-19T00:26:31;9.68;;;3.00;;
9320;SDS011;4699;41.950;12.514;2022-08-19T00:28:58;14.82;;;3.75;;
9320;SDS011;4699;41.950;12.514;2022-08-19T00:31:26;12.98;;;3.33;;
9320;SDS011;4699;41.950;12.514;2022-08-19T00:33:55;14.10;;;2.90;;
9320;SDS011;4699;41.950;12.514;2022-08-19T00:36:22;15.57;;;3.97;;
9320;SDS011;4699;41.950;12.514;2022-08-19T00:38:49;14.13;;;3.60;;
9320;SDS011;4699;41.950;12.514;2022-08-19T00:41:18;15.65;;;3.58;;
9320;SDS011;4699;41.950;12.514;2022-08-19T00:43:56;15.73;;;3.63;;
9320;SDS011;4699;41.950;12.514;2022-08-19T00:46:23;17.38;;;3.47;;
9320;SDS011;4699;41.950;12.514;2022-08-19T00:48:50;12.65;;;3.55;;
9320;SDS011;4699;41.950;12.514;2022-08-19T00:51:19;14.60;;;3.67;;
9320;SDS011;4699;41.950;12.514;2022-08-19T00:53:47;14.68;;;3.50;;
9320;SDS011;4699;41.950;12.514;2022-08-19T00:56:14;16.52;;;4.03;;
9320;SDS011;4699;41.950;12.514;2022-08-19T00:58:42;14.38;;;4.07;;
9320;SDS011;4699;41.950;12.514;2022-08-19T01:01:09;15.60;;;4.18;;
9320;SDS011;4699;41.950;12.514;2022-08-19T01:03:37;12.73;;;3.58;;
9320;SDS011;4699;41.950;12.514;2022-08-19T01:06:04;11.57;;;3.40;;
9320;SDS011;4699;41.950;12.514;2022-08-19T01:08:33;10.52;;;3.45;;
9320;SDS011;4699;41.950;12.514;2022-08-19T01:11:00;12.40;;;2.67;;
9320;SDS011;4699;41.950;12.514;2022-08-19T01:13:29;13.98;;;3.20;;
9320;SDS011;4699;41.950;12.514;2022-08-19T01:15:59;13.52;;;3.67;;
9320;SDS011;4699;41.950;12.514;2022-08-19T01:18:27;11.00;;;3.03;;
9320;SDS011;4699;41.950;12.514;2022-08-19T01:20:55;11.52;;;3.30;;
9320;SDS011;4699;41.950;12.514;2022-08-19T01:23:25;11.65;;;3.10;;
9320;SDS011;4699;41.950;12.514;2022-08-19T01:26:08;13.10;;;3.55;;
9320;SDS011;4699;41.950;12.514;2022-08-19T01:28:36;21.50;;;3.72;;
9320;SDS011;4699;41.950;12.514;2022-08-19T01:31:04;13.32;;;3.55;;
9320;SDS011;4699;41.950;12.514;2022-08-19T01:33:32;15.77;;;3.65;;
9320;SDS011;4699;41.950;12.514;2022-08-19T01:36:03;9.38;;;3.38;;
9320;SDS011;4699;41.950;12.514;2022-08-19T01:38:34;20.13;;;4.38;;
9320;SDS011;4699;41.950;12.514;2022-08-19T01:41:01;10.43;;;3.08;;
9320;SDS011;4699;41.950;12.514;2022-08-19T01:43:29;10.43;;;3.53;;
9320;SDS011;4699;41.950;12.514;2022-08-19T01:45:56;12.73;;;3.67;;
9320;SDS011;4699;41.950;12.514;2022-08-19T01:48:23;17.90;;;3.85;;
9320;SDS011;4699;41.950;12.514;2022-08-19T01:50:50;11.85;;;4.38;;
9320;SDS011;4699;41.950;12.514;2022-08-19T01:53:18;13.20;;;3.50;;
9320;SDS011;4699;41.950;12.514;2022-08-19T01:55:46;19.00;;;3.95;;
9320;SDS011;4699;41.950;12.514;2022-08-19T01:58:14;18.65;;;4.40;;
9320;SDS011;4699;41.950;12.514;2022-08-19T02:00:42;15.68;;;4.43;;
9320;SDS011;4699;41.950;12.514;2022-08-19T02:03:10;12.98;;;4.30;;
9320;SDS011;4699;41.950;12.514;2022-08-19T02:05:37;14.38;;;4.25;;
9320;SDS011;4699;41.950;12.514;2022-08-19T02:08:05;15.93;;;3.72;;
9320;SDS011;4699;41.950;12.514;2022-08-19T02:10:32;14.43;;;4.32;;
9320;SDS011;4699;41.950;12.514;2022-08-19T02:13:01;13.85;;;3.90;;
9320;SDS011;4699;41.950;12.514;2022-08-19T02:15:28;14.40;;;3.70;;
9320;SDS011;4699;41.950;12.514;2022-08-19T02:17:55;18.75;;;4.32;;
9320;SDS011;4699;41.950;12.514;2022-08-19T02:20:23;19.27;;;4.50;;
9320;SDS011;4699;41.950;12.514;2022-08-19T02:22:50;13.52;;;4.07;;
9320;SDS011;4699;41.950;12.514;2022-08-19T02:25:17;13.95;;;3.50;;
9320;SDS011;4699;41.950;12.514;2022-08-19T02:27:45;17.08;;;4.28;;
9320;SDS011;4699;41.950;12.514;2022-08-19T02:30:14;15.68;;;4.30;;
9320;SDS011;4699;41.950;12.514;2022-08-19T02:32:42;17.95;;;4.10;;
9320;SDS011;4699;41.950;12.514;2022-08-19T02:35:09;14.65;;;4.22;;
9320;SDS011;4699;41.950;12.514;2022-08-19T02:37:37;14.95;;;4.07;;
9320;SDS011;4699;41.950;12.514;2022-08-19T02:40:22;12.27;;;4.05;;
9320;SDS011;4699;41.950;12.514;2022-08-19T02:42:49;18.23;;;4.82;;
9320;SDS011;4699;41.950;12.514;2022-08-19T02:45:18;11.40;;;3.83;;
9320;SDS011;4699;41.950;12.514;2022-08-19T02:47:45;18.20;;;4.78;;
9320;SDS011;4699;41.950;12.514;2022-08-19T02:50:12;12.50;;;3.50;;
9320;SDS011;4699;41.950;12.514;2022-08-19T02:52:40;15.07;;;4.07;;
9320;SDS011;4699;41.950;12.514;2022-08-19T02:55:07;17.52;;;3.92;;
9320;SDS011;4699;41.950;12.514;2022-08-19T02:57:35;14.90;;;3.95;;
9320;SDS011;4699;41.950;12.514;2022-08-19T03:00:03;15.23;;;4.43;;
9320;SDS011;4699;41.950;12.514;2022-08-19T03:02:32;20.00;;;4.28;;
9320;SDS011;4699;41.950;12.514;2022-08-19T03:04:59;11.70;;;3.70;;
9320;SDS011;4699;41.950;12.514;2022-08-19T03:07:27;18.80;;;4.25;;
9320;SDS011;4699;41.950;12.514;2022-08-19T03:09:55;13.07;;;3.95;;
9320;SDS011;4699;41.950;12.514;2022-08-19T03:12:22;16.10;;;4.15;;
9320;SDS011;4699;41.950;12.514;2022-08-19T03:14:50;17.35;;;4.30;;
9320;SDS011;4699;41.950;12.514;2022-08-19T03:17:17;17.42;;;3.75;;
9320;SDS011;4699;41.950;12.514;2022-08-19T03:19:46;13.57;;;3.92;;
9320;SDS011;4699;41.950;12.514;2022-08-19T03:22:14;20.98;;;3.72;;
9320;SDS011;4699;41.950;12.514;2022-08-19T03:24:41;14.63;;;3.75;;
9320;SDS011;4699;41.950;12.514;2022-08-19T03:27:08;16.48;;;3.55;;
9320;SDS011;4699;41.950;12.514;2022-08-19T03:29:36;23.92;;;4.40;;
9320;SDS011;4699;41.950;12.514;2022-08-19T03:32:05;17.65;;;3.70;;
9320;SDS011;4699;41.950;12.514;2022-08-19T03:34:33;14.07;;;3.70;;
9320;SDS011;4699;41.950;12.514;2022-08-19T03:37:04;16.13;;;3.72;;
9320;SDS011;4699;41.950;12.514;2022-08-19T03:39:32;10.07;;;3.25;;
9320;SDS011;4699;41.950;12.514;2022-08-19T03:41:59;17.73;;;4.03;;
9320;SDS011;4699;41.950;12.514;2022-08-19T03:44:27;12.85;;;3.53;;
9320;SDS011;4699;41.950;12.514;2022-08-19T03:46:55;16.52;;;3.97;;
9320;SDS011;4699;41.950;12.514;2022-08-19T03:49:24;13.15;;;3.45;;
9320;SDS011;4699;41.950;12.514;2022-08-19T03:51:53;14.52;;;4.00;;
9320;SDS011;4699;41.950;12.514;2022-08-19T03:54:22;17.63;;;4.20;;
9320;SDS011;4699;41.950;12.514;2022-08-19T03:56:50;16.95;;;4.28;;
9320;SDS011;4699;41.950;12.514;2022-08-19T03:59:20;12.85;;;3.80;;
9320;SDS011;4699;41.950;12.514;2022-08-19T04:01:51;19.25;;;4.00;;
9320;SDS011;4699;41.950;12.514;2022-08-19T04:04:18;16.52;;;4.00;;
9320;SDS011;4699;41.950;12.514;2022-08-19T04:06:46;11.80;;;3.40;;
9320;SDS011;4699;41.950;12.514;2022-08-19T04:09:14;11.90;;;3.78;;
9320;SDS011;4699;41.950;12.514;2022-08-19T04:11:44;16.65;;;4.18;;
9320;SDS011;4699;41.950;12.514;2022-08-19T04:14:13;11.80;;;3.30;;
9320;SDS011;4699;41.950;12.514;2022-08-19T04:16:40;10.73;;;3.63;;
9320;SDS011;4699;41.950;12.514;2022-08-19T04:19:08;13.43;;;3.58;;
9320;SDS011;4699;41.950;12.514;2022-08-19T04:21:36;17.92;;;3.67;;
9320;SDS011;4699;41.950;12.514;2022-08-19T04:24:03;11.65;;;3.60;;
9320;SDS011;4699;41.950;12.514;2022-08-19T04:26:31;11.73;;;3.85;;
9320;SDS011;4699;41.950;12.514;2022-08-19T04:29:00;17.88;;;3.78;;
9320;SDS011;4699;41.950;12.514;2022-08-19T04:31:29;13.20;;;3.97;;
9320;SDS011;4699;41.950;12.514;2022-08-19T04:33:57;16.13;;;3.33;;
9320;SDS011;4699;41.950;12.514;2022-08-19T04:36:25;12.48;;;3.42;;
9320;SDS011;4699;41.950;12.514;2022-08-19T04:38:54;13.82;;;3.85;;
9320;SDS011;4699;41.950;12.514;2022-08-19T04:41:21;9.50;;;3.28;;
9320;SDS011;4699;41.950;12.514;2022-08-19T04:44:16;16.90;;;3.83;;
9320;SDS011;4699;41.950;12.514;2022-08-19T04:46:44;10.10;;;3.22;;
9320;SDS011;4699;41.950;12.514;2022-08-19T04:49:12;15.93;;;3.78;;
9320;SDS011;4699;41.950;12.514;2022-08-19T04:51:40;18.67;;;4.00;;
9320;SDS011;4699;41.950;12.514;2022-08-19T04:54:08;14.45;;;4.18;;
9320;SDS011;4699;41.950;12.514;2022-08-19T04:56:35;13.10;;;3.50;;
9320;SDS011;4699;41.950;12.514;2022-08-19T04:59:03;9.07;;;3.72;;
9320;SDS011;4699;41.950;12.514;2022-08-19T05:01:32;11.50;;;3.53;;
9320;SDS011;4699;41.950;12.514;2022-08-19T05:04:02;16.73;;;3.60;;
9320;SDS011;4699;41.950;12.514;2022-08-19T05:06:30;12.73;;;4.43;;
9320;SDS011;4699;41.950;12.514;2022-08-19T05:08:59;9.93;;;3.00;;
9320;SDS011;4699;41.950;12.514;2022-08-19T05:11:28;11.27;;;3.72;;
9320;SDS011;4699;41.950;12.514;2022-08-19T05:13:56;9.43;;;3.55;;
9320;SDS011;4699;41.950;12.514;2022-08-19T05:16:24;15.50;;;3.90;;
9320;SDS011;4699;41.950;12.514;2022-08-19T05:18:53;13.85;;;3.63;;
9320;SDS011;4699;41.950;12.514;2022-08-19T05:21:38;11.25;;;3.95;;
9320;SDS011;4699;41.950;12.514;2022-08-19T05:24:23;12.40;;;3.92;;
9320;SDS011;4699;41.950;12.514;2022-08-19T05:26:51;15.32;;;3.83;;
9320;SDS011;4699;41.950;12.514;2022-08-19T05:29:21;6.40;;;2.97;;
9320;SDS011;4699;41.950;12.514;2022-08-19T05:31:49;15.48;;;3.80;;
9320;SDS011;4699;41.950;12.514;2022-08-19T05:34:19;11.48;;;4.10;;
9320;SDS011;4699;41.950;12.514;2022-08-19T05:36:47;11.70;;;3.72;;
9320;SDS011;4699;41.950;12.514;2022-08-19T05:39:16;14.63;;;4.32;;
9320;SDS011;4699;41.950;12.514;2022-08-19T05:41:43;11.85;;;3.33;;
9320;SDS011;4699;41.950;12.514;2022-08-19T05:44:11;18.67;;;3.97;;
9320;SDS011;4699;41.950;12.514;2022-08-19T05:46:38;9.45;;;3.63;;
9320;SDS011;4699;41.950;12.514;2022-08-19T05:49:06;8.63;;;3.30;;
9320;SDS011;4699;41.950;12.514;2022-08-19T05:51:35;11.35;;;3.42;;
9320;SDS011;4699;41.950;12.514;2022-08-19T05:54:03;14.63;;;3.80;;
9320;SDS011;4699;41.950;12.514;2022-08-19T05:56:32;11.13;;;3.40;;
9320;SDS011;4699;41.950;12.514;2022-08-19T05:59:03;11.02;;;3.60;;
9320;SDS011;4699;41.950;12.514;2022-08-19T06:01:35;9.65;;;3.58;;
9320;SDS011;4699;41.950;12.514;2022-08-19T06:04:03;5.47;;;3.13;;
9320;SDS011;4699;41.950;12.514;2022-08-19T06:06:31;14.05;;;3.88;;
9320;SDS011;4699;41.950;12.514;2022-08-19T06:09:01;14.55;;;3.45;;
9320;SDS011;4699;41.950;12.514;2022-08-19T06:11:32;14.15;;;3.78;;
9320;SDS011;4699;41.950;12.514;2022-08-19T06:14:00;11.00;;;3.20;;
9320;SDS011;4699;41.950;12.514;2022-08-19T06:16:28;7.93;;;3.25;;
9320;SDS011;4699;41.950;12.514;2022-08-19T06:18:57;10.88;;;3.25;;
9320;SDS011;4699;41.950;12.514;2022-08-19T06:21:27;8.77;;;3.50;;
9320;SDS011;4699;41.950;12.514;2022-08-19T06:23:54;12.50;;;3.70;;
9320;SDS011;4699;41.950;12.514;2022-08-19T06:26:24;10.75;;;3.80;;
9320;SDS011;4699;41.950;12.514;2022-08-19T06:28:52;6.32;;;2.72;;
9320;SDS011;4699;41.950;12.514;2022-08-19T06:31:21;8.90;;;3.35;;
9320;SDS011;4699;41.950;12.514;2022-08-19T06:33:48;12.32;;;3.35;;
9320;SDS011;4699;41.950;12.514;2022-08-19T06:36:17;5.55;;;2.85;;
9320;SDS011;4699;41.950;12.514;2022-08-19T06:38:44;5.82;;;2.53;;
9320;SDS011;4699;41.950;12.514;2022-08-19T06:41:11;7.88;;;2.63;;
9320;SDS011;4699;41.950;12.514;2022-08-19T06:43:40;11.43;;;3.13;;
9320;SDS011;4699;41.950;12.514;2022-08-19T06:46:11;9.10;;;2.78;;
9320;SDS011;4699;41.950;12.514;2022-08-19T06:48:38;7.72;;;2.75;;
9320;SDS011;4699;41.950;12.514;2022-08-19T06:51:08;7.00;;;2.83;;
9320;SDS011;4699;41.950;12.514;2022-08-19T06:53:35;6.13;;;2.60;;
9320;SDS011;4699;41.950;12.514;2022-08-19T06:56:04;6.90;;;3.42;;
9320;SDS011;4699;41.950;12.514;2022-08-19T06:58:31;8.25;;;3.53;;
9320;SDS011;4699;41.950;12.514;2022-08-19T07:01:01;12.98;;;3.25;;
9320;SDS011;4699;41.950;12.514;2022-08-19T07:03:29;5.13;;;2.50;;
9320;SDS011;4699;41.950;12.514;2022-08-19T07:05:58;4.70;;;2.70;;
9320;SDS011;4699;41.950;12.514;2022-08-19T07:08:29;7.38;;;2.83;;
9320;SDS011;4699;41.950;12.514;2022-08-19T07:10:56;7.88;;;2.83;;
9320;SDS011;4699;41.950;12.514;2022-08-19T07:13:24;6.57;;;2.53;;
9320;SDS011;4699;41.950;12.514;2022-08-19T07:15:51;11.23;;;2.95;;
9320;SDS011;4699;41.950;12.514;2022-08-19T07:18:20;8.00;;;2.83;;
9320;SDS011;4699;41.950;12.514;2022-08-19T07:20:48;10.55;;;2.63;;
9320;SDS011;4699;41.950;12.514;2022-08-19T07:23:15;5.95;;;2.25;;
9320;SDS011;4699;41.950;12.514;2022-08-19T07:25:43;8.88;;;2.65;;
9320;SDS011;4699;41.950;12.514;2022-08-19T07:28:11;7.18;;;2.70;;
9320;SDS011;4699;41.950;12.514;2022-08-19T07:30:38;5.15;;;2.20;;
9320;SDS011;4699;41.950;12.514;2022-08-19T07:33:06;6.78;;;2.50;;
9320;SDS011;4699;41.950;12.514;2022-08-19T07:35:35;4.72;;;2.47;;
9320;SDS011;4699;41.950;12.514;2022-08-19T07:38:02;6.60;;;2.53;;
9320;SDS011;4699;41.950;12.514;2022-08-19T07:40:30;8.73;;;2.50;;
9320;SDS011;4699;41.950;12.514;2022-08-19T07:42:57;5.80;;;2.47;;
9320;SDS011;4699;41.950;12.514;2022-08-19T07:45:24;6.03;;;2.40;;
9320;SDS011;4699;41.950;12.514;2022-08-19T07:47:52;8.02;;;2.70;;
9320;SDS011;4699;41.950;12.514;2022-08-19T07:50:20;9.15;;;3.03;;
9320;SDS011;4699;41.950;12.514;2022-08-19T07:52:49;5.80;;;2.47;;
9320;SDS011;4699;41.950;12.514;2022-08-19T07:55:17;6.18;;;2.88;;
9320;SDS011;4699;41.950;12.514;2022-08-19T07:57:45;6.40;;;2.45;;
9320;SDS011;4699;41.950;12.514;2022-08-19T08:00:12;6.15;;;2.63;;
9320;SDS011;4699;41.950;12.514;2022-08-19T08:02:40;9.82;;;2.97;;
9320;SDS011;4699;41.950;12.514;2022-08-19T08:05:08;7.05;;;2.60;;
9320;SDS011;4699;41.950;12.514;2022-08-19T08:07:54;5.63;;;2.15;;
9320;SDS011;4699;41.950;12.514;2022-08-19T08:10:39;4.32;;;2.13;;
9320;SDS011;4699;41.950;12.514;2022-08-19T08:13:07;8.02;;;2.47;;
9320;SDS011;4699;41.950;12.514;2022-08-19T08:15:34;6.28;;;2.47;;
9320;SDS011;4699;41.950;12.514;2022-08-19T08:18:03;7.28;;;2.65;;
9320;SDS011;4699;41.950;12.514;2022-08-19T08:20:31;6.07;;;2.13;;
9320;SDS011;4699;41.950;12.514;2022-08-19T08:22:59;3.25;;;1.98;;
9320;SDS011;4699;41.950;12.514;2022-08-19T08:25:44;7.70;;;2.17;;
9320;SDS011;4699;41.950;12.514;2022-08-19T08:28:12;6.22;;;2.53;;
9320;SDS011;4699;41.950;12.514;2022-08-19T08:30:39;7.65;;;3.13;;
9320;SDS011;4699;41.950;12.514;2022-08-19T08:33:07;4.20;;;2.05;;
9320;SDS011;4699;41.950;12.514;2022-08-19T08:35:35;8.45;;;2.35;;
9320;SDS011;4699;41.950;12.514;2022-08-19T08:38:03;5.70;;;2.90;;
9320;SDS011;4699;41.950;12.514;2022-08-19T08:40:33;4.72;;;2.30;;
9320;SDS011;4699;41.950;12.514;2022-08-19T08:43:06;5.18;;;1.95;;
9320;SDS011;4699;41.950;12.514;2022-08-19T08:45:34;5.53;;;2.40;;
9320;SDS011;4699;41.950;12.514;2022-08-19T08:48:16;6.60;;;2.45;;
9320;SDS011;4699;41.950;12.514;2022-08-19T08:50:45;13.82;;;2.80;;
9320;SDS011;4699;41.950;12.514;2022-08-19T08:53:17;6.40;;;2.40;;
9320;SDS011;4699;41.950;12.514;2022-08-19T08:55:44;5.70;;;2.40;;
9320;SDS011;4699;41.950;12.514;2022-08-19T08:58:12;8.02;;;3.28;;
9320;SDS011;4699;41.950;12.514;2022-08-19T09:00:43;5.57;;;2.60;;
9320;SDS011;4699;41.950;12.514;2022-08-19T09:03:14;6.78;;;2.67;;
9320;SDS011;4699;41.950;12.514;2022-08-19T09:05:47;7.90;;;2.38;;
9320;SDS011;4699;41.950;12.514;2022-08-19T09:08:22;6.55;;;2.15;;
9320;SDS011;4699;41.950;12.514;2022-08-19T09:10:55;6.72;;;2.40;;
9320;SDS011;4699;41.950;12.514;2022-08-19T09:13:24;10.82;;;2.53;;
9320;SDS011;4699;41.950;12.514;2022-08-19T09:15:56;6.47;;;2.50;;
9320;SDS011;4699;41.950;12.514;2022-08-19T09:18:26;13.73;;;2.97;;
9320;SDS011;4699;41.950;12.514;2022-08-19T09:20:53;66.95;;;9.10;;
9320;SDS011;4699;41.950;12.514;2022-08-19T09:23:23;18.98;;;3.90;;
9320;SDS011;4699;41.950;12.514;2022-08-19T09:25:50;6.18;;;2.60;;
9320;SDS011;4699;41.950;12.514;2022-08-19T09:28:17;14.18;;;3.40;;
9320;SDS011;4699;41.950;12.514;2022-08-19T09:30:45;12.38;;;3.22;;
9320;SDS011;4699;41.950;12.514;2022-08-19T09:33:12;7.13;;;3.00;;
9320;SDS011;4699;41.950;12.514;2022-08-19T09:35:41;13.05;;;3.10;;
9320;SDS011;4699;41.950;12.514;2022-08-19T09:38:08;8.32;;;2.65;;
9320;SDS011;4699;41.950;12.514;2022-08-19T09:40:36;5.00;;;2.92;;
9320;SDS011;4699;41.950;12.514;2022-08-19T09:43:04;7.45;;;2.42;;
9320;SDS011;4699;41.950;12.514;2022-08-19T09:45:32;8.95;;;2.80;;
9320;SDS011;4699;41.950;12.514;2022-08-19T09:47:59;5.13;;;2.28;;
9320;SDS011;4699;41.950;12.514;2022-08-19T09:50:27;6.75;;;2.70;;
9320;SDS011;4699;41.950;12.514;2022-08-19T09:52:57;8.75;;;2.55;;
9320;SDS011;4699;41.950;12.514;2022-08-19T09:55:25;4.97;;;1.98;;
9320;SDS011;4699;41.950;12.514;2022-08-19T09:57:54;13.20;;;2.80;;
9320;SDS011;4699;41.950;12.514;2022-08-19T10:00:21;6.20;;;2.33;;
9320;SDS011;4699;41.950;12.514;2022-08-19T10:02:49;6.35;;;2.60;;
9320;SDS011;4699;41.950;12.514;2022-08-19T10:05:16;4.70;;;2.40;;
9320;SDS011;4699;41.950;12.514;2022-08-19T10:08:01;3.70;;;2.25;;
9320;SDS011;4699;41.950;12.514;2022-08-19T10:10:28;9.32;;;2.60;;
9320;SDS011;4699;41.950;12.514;2022-08-19T10:12:56;7.75;;;2.50;;
9320;SDS011;4699;41.950;12.514;2022-08-19T10:15:24;8.27;;;2.40;;
9320;SDS011;4699;41.950;12.514;2022-08-19T10:17:51;5.88;;;2.40;;
9320;SDS011;4699;41.950;12.514;2022-08-19T10:20:18;9.82;;;2.20;;
9320;SDS011;4699;41.950;12.514;2022-08-19T10:22:46;10.25;;;2.75;;
9320;SDS011;4699;41.950;12.514;2022-08-19T10:25:13;6.15;;;2.60;;
9320;SDS011;4699;41.950;12.514;2022-08-19T10:27:42;6.80;;;2.20;;
9320;SDS011;4699;41.950;12.514;2022-08-19T10:30:12;4.57;;;2.45;;
9320;SDS011;4699;41.950;12.514;2022-08-19T10:32:39;5.72;;;2.92;;
9320;SDS011;4699;41.950;12.514;2022-08-19T10:35:06;7.78;;;2.53;;
9320;SDS011;4699;41.950;12.514;2022-08-19T10:37:34;3.75;;;2.60;;
9320;SDS011;4699;41.950;12.514;2022-08-19T10:40:02;9.10;;;3.03;;
9320;SDS011;4699;41.950;12.514;2022-08-19T10:42:30;5.22;;;1.90;;
9320;SDS011;4699;41.950;12.514;2022-08-19T10:44:58;5.55;;;1.90;;
9320;SDS011;4699;41.950;12.514;2022-08-19T10:47:26;4.47;;;2.30;;
9320;SDS011;4699;41.950;12.514;2022-08-19T10:49:54;10.35;;;2.70;;
9320;SDS011;4699;41.950;12.514;2022-08-19T10:52:39;10.88;;;3.20;;
9320;SDS011;4699;41.950;12.514;2022-08-19T10:55:07;12.18;;;3.28;;
9320;SDS011;4699;41.950;12.514;2022-08-19T10:57:52;6.93;;;2.83;;
9320;SDS011;4699;41.950;12.514;2022-08-19T11:00:20;7.32;;;2.80;;
9320;SDS011;4699;41.950;12.514;2022-08-19T11:02:49;8.43;;;2.80;;
9320;SDS011;4699;41.950;12.514;2022-08-19T11:05:17;7.43;;;2.42;;
9320;SDS011;4699;41.950;12.514;2022-08-19T11:07:44;9.63;;;2.95;;
9320;SDS011;4699;41.950;12.514;2022-08-19T11:10:12;8.80;;;2.80;;
9320;SDS011;4699;41.950;12.514;2022-08-19T11:12:40;7.10;;;2.95;;
9320;SDS011;4699;41.950;12.514;2022-08-19T11:15:08;8.23;;;2.45;;
9320;SDS011;4699;41.950;12.514;2022-08-19T11:17:37;5.93;;;2.58;;
9320;SDS011;4699;41.950;12.514;2022-08-19T11:20:09;7.10;;;3.20;;
9320;SDS011;4699;41.950;12.514;2022-08-19T11:22:37;7.72;;;2.83;;
9320;SDS011;4699;41.950;12.514;2022-08-19T11:25:05;8.13;;;2.53;;
9320;SDS011;4699;41.950;12.514;2022-08-19T11:27:33;7.22;;;2.90;;
9320;SDS011;4699;41.950;12.514;2022-08-19T11:30:00;6.90;;;2.58;;
9320;SDS011;4699;41.950;12.514;2022-08-19T11:32:28;7.57;;;2.50;;
9320;SDS011;4699;41.950;12.514;2022-08-19T11:34:56;6.85;;;2.28;;
9320;SDS011;4699;41.950;12.514;2022-08-19T11:37:24;6.97;;;2.00;;
9320;SDS011;4699;41.950;12.514;2022-08-19T11:39:52;4.97;;;2.50;;
9320;SDS011;4699;41.950;12.514;2022-08-19T11:42:19;6.57;;;2.15;;
9320;SDS011;4699;41.950;12.514;2022-08-19T11:45:04;5.00;;;2.30;;
9320;SDS011;4699;41.950;12.514;2022-08-19T11:47:32;9.10;;;2.75;;
9320;SDS011;4699;41.950;12.514;2022-08-19T11:49:59;3.53;;;2.08;;
9320;SDS011;4699;41.950;12.514;2022-08-19T11:52:27;9.13;;;2.55;;
9320;SDS011;4699;41.950;12.514;2022-08-19T11:54:55;7.55;;;2.40;;
9320;SDS011;4699;41.950;12.514;2022-08-19T11:57:22;4.45;;;1.90;;
9320;SDS011;4699;41.950;12.514;2022-08-19T11:59:51;5.20;;;2.30;;
9320;SDS011;4699;41.950;12.514;2022-08-19T12:02:18;6.28;;;2.40;;
9320;SDS011;4699;41.950;12.514;2022-08-19T12:04:46;2.33;;;1.63;;
9320;SDS011;4699;41.950;12.514;2022-08-19T12:07:13;4.20;;;1.95;;
9320;SDS011;4699;41.950;12.514;2022-08-19T12:09:42;6.28;;;1.80;;
9320;SDS011;4699;41.950;12.514;2022-08-19T12:12:09;3.58;;;1.67;;
9320;SDS011;4699;41.950;12.514;2022-08-19T12:14:37;2.97;;;1.70;;
9320;SDS011;4699;41.950;12.514;2022-08-19T12:17:04;2.92;;;1.73;;
9320;SDS011;4699;41.950;12.514;2022-08-19T12:19:33;2.50;;;1.52;;
9320;SDS011;4699;41.950;12.514;2022-08-19T12:22:01;5.43;;;1.83;;
9320;SDS011;4699;41.950;12.514;2022-08-19T12:24:29;3.67;;;2.03;;
9320;SDS011;4699;41.950;12.514;2022-08-19T12:26:59;3.67;;;1.70;;
9320;SDS011;4699;41.950;12.514;2022-08-19T12:29:27;5.70;;;2.08;;
9320;SDS011;4699;41.950;12.514;2022-08-19T12:31:54;5.93;;;1.88;;
9320;SDS011;4699;41.950;12.514;2022-08-19T12:34:25;4.63;;;2.10;;
9320;SDS011;4699;41.950;12.514;2022-08-19T12:36:54;4.18;;;1.77;;
9320;SDS011;4699;41.950;12.514;2022-08-19T12:39:22;3.60;;;1.63;;
9320;SDS011;4699;41.950;12.514;2022-08-19T12:41:49;2.83;;;1.25;;
9320;SDS011;4699;41.950;12.514;2022-08-19T12:44:18;3.20;;;1.90;;
9320;SDS011;4699;41.950;12.514;2022-08-19T12:46:46;5.68;;;2.00;;
9320;SDS011;4699;41.950;12.514;2022-08-19T12:49:14;4.53;;;1.80;;
9320;SDS011;4699;41.950;12.514;2022-08-19T12:51:41;2.30;;;1.48;;
9320;SDS011;4699;41.950;12.514;2022-08-19T12:54:09;2.28;;;1.85;;
9320;SDS011;4699;41.950;12.514;2022-08-19T12:56:36;7.35;;;2.20;;
9320;SDS011;4699;41.950;12.514;2022-08-19T12:59:03;2.75;;;1.63;;
9320;SDS011;4699;41.950;12.514;2022-08-19T13:01:34;2.03;;;1.35;;
9320;SDS011;4699;41.950;12.514;2022-08-19T13:04:01;5.90;;;2.25;;
9320;SDS011;4699;41.950;12.514;2022-08-19T13:06:28;3.72;;;1.80;;
9320;SDS011;4699;41.950;12.514;2022-08-19T13:08:56;2.70;;;1.70;;
9320;SDS011;4699;41.950;12.514;2022-08-19T13:11:23;4.63;;;1.52;;
9320;SDS011;4699;41.950;12.514;2022-08-19T13:13:51;3.65;;;1.60;;
9320;SDS011;4699;41.950;12.514;2022-08-19T13:16:20;4.40;;;1.75;;
9320;SDS011;4699;41.950;12.514;2022-08-19T13:18:48;3.15;;;1.58;;
9320;SDS011;4699;41.950;12.514;2022-08-19T13:21:17;4.53;;;1.95;;
9320;SDS011;4699;41.950;12.514;2022-08-19T13:23:45;5.57;;;1.95;;
9320;SDS011;4699;41.950;12.514;2022-08-19T13:26:13;6.13;;;1.92;;
9320;SDS011;4699;41.950;12.514;2022-08-19T13:28:40;3.72;;;1.73;;
9320;SDS011;4699;41.950;12.514;2022-08-19T13:31:26;5.20;;;1.75;;
9320;SDS011;4699;41.950;12.514;2022-08-19T13:34:12;15.35;;;2.03;;
9320;SDS011;4699;41.950;12.514;2022-08-19T13:36:40;3.60;;;1.77;;
9320;SDS011;4699;41.950;12.514;2022-08-19T13:39:07;5.68;;;2.05;;
9320;SDS011;4699;41.950;12.514;2022-08-19T13:41:35;5.07;;;2.00;;
9320;SDS011;4699;41.950;12.514;2022-08-19T13:44:02;3.97;;;2.05;;
9320;SDS011;4699;41.950;12.514;2022-08-19T13:46:31;5.03;;;2.40;;
9320;SDS011;4699;41.950;12.514;2022-08-19T13:48:58;4.07;;;1.95;;
9320;SDS011;4699;41.950;12.514;2022-08-19T13:51:27;16.27;;;2.50;;
9320;SDS011;4699;41.950;12.514;2022-08-19T13:53:54;5.30;;;2.25;;
9320;SDS011;4699;41.950;12.514;2022-08-19T13:56:21;4.88;;;2.40;;
9320;SDS011;4699;41.950;12.514;2022-08-19T13:58:48;4.45;;;2.25;;
9320;SDS011;4699;41.950;12.514;2022-08-19T14:01:18;8.05;;;2.53;;
9320;SDS011;4699;41.950;12.514;2022-08-19T14:03:46;3.65;;;2.40;;
9320;SDS011;4699;41.950;12.514;2022-08-19T14:06:13;4.07;;;2.28;;
9320;SDS011;4699;41.950;12.514;2022-08-19T14:08:43;4.25;;;2.08;;
9320;SDS011;4699;41.950;12.514;2022-08-19T14:11:10;5.72;;;2.28;;
9320;SDS011;4699;41.950;12.514;2022-08-19T14:13:37;4.50;;;2.17;;
9320;SDS011;4699;41.950;12.514;2022-08-19T14:16:08;5.88;;;2.35;;
9320;SDS011;4699;41.950;12.514;2022-08-19T14:18:35;9.00;;;2.45;;
9320;SDS011;4699;41.950;12.514;2022-08-19T14:21:04;6.47;;;2.47;;
9320;SDS011;4699;41.950;12.514;2022-08-19T14:23:32;4.65;;;1.80;;
9320;SDS011;4699;41.950;12.514;2022-08-19T14:26:06;5.80;;;2.28;;
9320;SDS011;4699;41.950;12.514;2022-08-19T14:28:34;4.75;;;2.22;;
9320;SDS011;4699;41.950;12.514;2022-08-19T14:31:01;5.80;;;2.25;;
9320;SDS011;4699;41.950;12.514;2022-08-19T14:33:28;7.07;;;2.40;;
9320;SDS011;4699;41.950;12.514;2022-08-19T14:35:57;5.35;;;2.35;;
9320;SDS011;4699;41.950;12.514;2022-08-19T14:38:25;6.75;;;2.45;;
9320;SDS011;4699;41.950;12.514;2022-08-19T14:40:52;5.80;;;2.40;;
9320;SDS011;4699;41.950;12.514;2022-08-19T14:43:21;6.43;;;2.72;;
9320;SDS011;4699;41.950;12.514;2022-08-19T14:45:48;6.43;;;2.10;;
9320;SDS011;4699;41.950;12.514;2022-08-19T14:48:16;6.10;;;2.20;;
9320;SDS011;4699;41.950;12.514;2022-08-19T14:50:43;6.68;;;2.53;;
9320;SDS011;4699;41.950;12.514;2022-08-19T14:53:11;4.85;;;2.30;;
9320;SDS011;4699;41.950;12.514;2022-08-19T14:55:40;5.28;;;2.00;;
9320;SDS011;4699;41.950;12.514;2022-08-19T14:58:08;4.45;;;2.17;;
9320;SDS011;4699;41.950;12.514;2022-08-19T15:00:36;9.30;;;2.50;;
9320;SDS011;4699;41.950;12.514;2022-08-19T15:03:04;5.22;;;2.35;;
9320;SDS011;4699;41.950;12.514;2022-08-19T15:05:31;4.38;;;2.50;;